createdAt,value
2017-04-03T00:00:08.647Z,10.25
2017-04-03T00:01:08.622Z,10.25
2017-04-03T00:02:08.297Z,10.3
2017-04-03T00:03:08.797Z,10.28
2017-04-03T00:04:08.587Z,10.22
2017-04-03T00:05:08.253Z,10.22
2017-04-03T00:06:08.244Z,10.25
2017-04-03T00:07:08.218Z,10.21
2017-04-03T00:08:08.526Z,10.15
2017-04-03T00:09:08.521Z,10.06
2017-04-03T00:10:08.515Z,10.04
2017-04-03T00:11:08.494Z,10.07
2017-04-03T00:12:08.205Z,10.03
2017-04-03T00:13:08.147Z,10
2017-04-03T00:14:08.464Z,10
2017-04-03T00:15:07.789Z,10.03
2017-04-03T00:16:07.779Z,9.97
2017-04-03T00:17:08.383Z,9.96
2017-04-03T00:18:07.748Z,9.96
2017-04-03T00:19:08.359Z,10
2017-04-03T00:20:07.922Z,9.91
2017-04-03T00:21:08.015Z,10.01
2017-04-03T00:22:08.311Z,9.97
2017-04-03T00:23:08.294Z,9.86
2017-04-03T00:24:08.282Z,9.91
2017-04-03T00:25:07.949Z,9.89
2017-04-03T00:26:07.935Z,9.78
2017-04-03T00:27:08.237Z,9.83
2017-04-03T00:28:07.906Z,9.82
2017-04-03T00:29:07.581Z,9.75
2017-04-03T00:30:07.889Z,9.73
2017-04-03T00:31:08.177Z,9.75
2017-04-03T00:32:08.175Z,9.88
2017-04-03T00:33:07.829Z,9.88
2017-04-03T00:34:07.825Z,9.85
2017-04-03T00:35:07.487Z,9.91
2017-04-03T00:36:08.096Z,9.96
2017-04-03T00:37:08.082Z,9.93
2017-04-03T00:38:08.070Z,9.96
2017-04-03T00:39:08.050Z,9.91
2017-04-03T00:40:07.723Z,9.97
2017-04-03T00:41:08.023Z,10.01
2017-04-03T00:42:07.698Z,10.06
2017-04-03T00:43:07.992Z,10.04
2017-04-03T00:44:07.669Z,10
2017-04-03T00:45:07.861Z,9.99
2017-04-03T00:46:07.946Z,9.96
2017-04-03T00:47:07.616Z,10.06
2017-04-03T00:48:07.922Z,10.06
2017-04-03T00:49:07.906Z,10.06
2017-04-03T00:50:07.885Z,10.09
2017-04-03T00:51:07.871Z,10.06
2017-04-03T00:52:07.546Z,10.07
2017-04-03T00:53:07.528Z,10.06
2017-04-03T00:54:07.822Z,10.19
2017-04-03T00:55:07.499Z,10.24
2017-04-03T00:56:07.790Z,10.22
2017-04-03T00:57:07.778Z,10.19
2017-04-03T00:58:07.765Z,10.18
2017-04-03T00:59:07.744Z,10.15
2017-04-03T01:00:07.421Z,10.18
2017-04-03T01:01:07.714Z,10.17
2017-04-03T01:02:07.707Z,10.24
2017-04-03T01:03:07.686Z,10.18
2017-04-03T01:04:07.676Z,10.3
2017-04-03T01:05:07.657Z,10.21
2017-04-03T01:06:07.329Z,10.22
2017-04-03T01:07:07.629Z,10.14
2017-04-03T01:08:07.614Z,10.19
2017-04-03T01:09:07.597Z,10.19
2017-04-03T01:10:07.584Z,10.18
2017-04-03T01:11:07.572Z,10.18
2017-04-03T01:12:07.553Z,10.28
2017-04-03T01:13:07.539Z,10.28
2017-04-03T01:14:07.207Z,10.19
2017-04-03T01:15:07.509Z,10.26
2017-04-03T01:16:07.499Z,10.32
2017-04-03T01:17:07.484Z,10.25
2017-04-03T01:18:07.469Z,10.25
2017-04-03T01:19:07.449Z,10.18
2017-04-03T01:20:07.428Z,10.24
2017-04-03T01:21:07.420Z,10.24
2017-04-03T01:22:07.402Z,10.28
2017-04-03T01:23:07.076Z,10.32
2017-04-03T01:24:07.058Z,10.28
2017-04-03T01:25:07.362Z,10.28
2017-04-03T01:26:07.344Z,10.21
2017-04-03T01:27:07.329Z,10.26
2017-04-03T01:28:07.317Z,10.3
2017-04-03T01:29:07.295Z,10.18
2017-04-03T01:30:07.283Z,10.17
2017-04-03T01:31:07.267Z,10.19
2017-04-03T01:32:07.254Z,10.24
2017-04-03T01:33:07.241Z,10.21
2017-04-03T01:34:06.906Z,10.14
2017-04-03T01:35:07.211Z,10.19
2017-04-03T01:36:07.194Z,10.18
2017-04-03T01:37:07.182Z,10.19
2017-04-03T01:38:07.166Z,10.25
2017-04-03T01:39:07.151Z,10.17
2017-04-03T01:40:07.139Z,10.21
2017-04-03T01:41:07.124Z,10.26
2017-04-03T01:42:07.109Z,10.18
2017-04-03T01:43:07.088Z,10.24
2017-04-03T01:44:07.076Z,10.22
2017-04-03T01:45:07.057Z,10.28
2017-04-03T01:46:07.047Z,10.19
2017-04-03T01:47:07.041Z,10.21
2017-04-03T01:48:06.705Z,10.24
2017-04-03T01:49:07.006Z,10.19
2017-04-03T01:50:06.993Z,10.19
2017-04-03T01:51:06.658Z,10.21
2017-04-03T01:52:06.961Z,10.19
2017-04-03T01:53:06.942Z,10.19
2017-04-03T01:54:06.976Z,10.19
2017-04-03T01:55:06.962Z,10.21
2017-04-03T01:56:06.273Z,10.14
2017-04-03T01:57:06.880Z,10.24
2017-04-03T01:58:06.860Z,10.22
2017-04-03T01:59:06.852Z,10.33
2017-04-03T02:00:06.834Z,10.25
2017-04-03T02:01:06.823Z,10.3
2017-04-03T02:02:06.841Z,10.14
2017-04-03T02:03:06.788Z,10.26
2017-04-03T02:04:06.776Z,10.22
2017-04-03T02:05:06.444Z,10.22
2017-04-03T02:06:06.465Z,10.18
2017-04-03T02:07:06.732Z,10.26
2017-04-03T02:08:06.729Z,10.24
2017-04-03T02:09:06.076Z,10.28
2017-04-03T02:10:06.686Z,10.28
2017-04-03T02:11:06.721Z,10.22
2017-04-03T02:12:06.349Z,10.21
2017-04-03T02:13:06.661Z,10.24
2017-04-03T02:14:06.628Z,10.26
2017-04-03T02:15:06.624Z,10.21
2017-04-03T02:16:06.600Z,10.25
2017-04-03T02:17:05.984Z,10.17
2017-04-03T02:18:06.251Z,10.17
2017-04-03T02:19:06.237Z,10.17
2017-04-03T02:20:06.544Z,10.22
2017-04-03T02:21:06.537Z,10
2017-04-03T02:22:06.513Z,10.12
2017-04-03T02:23:06.513Z,10.12
2017-04-03T02:24:06.482Z,10.1
2017-04-03T02:25:06.525Z,10.07
2017-04-03T02:26:06.437Z,10.01
2017-04-03T02:27:06.430Z,10.06
2017-04-03T02:28:06.105Z,10
2017-04-03T02:29:06.089Z,10.04
2017-04-03T02:30:06.424Z,9.89
2017-04-03T02:31:06.058Z,9.94
2017-04-03T02:32:06.040Z,9.91
2017-04-03T02:33:06.029Z,9.94
2017-04-03T02:34:06.323Z,9.94
2017-04-03T02:35:06.311Z,9.85
2017-04-03T02:36:05.986Z,9.93
2017-04-03T02:37:06.281Z,9.82
2017-04-03T02:38:06.265Z,9.79
2017-04-03T02:39:06.250Z,9.75
2017-04-03T02:40:06.230Z,9.68
2017-04-03T02:41:06.228Z,9.66
2017-04-03T02:42:05.580Z,9.67
2017-04-03T02:43:06.183Z,9.71
2017-04-03T02:44:05.864Z,9.73
2017-04-03T02:45:06.087Z,9.7
2017-04-03T02:46:06.204Z,9.71
2017-04-03T02:47:06.138Z,9.73
2017-04-03T02:48:06.137Z,9.76
2017-04-03T02:49:05.783Z,9.73
2017-04-03T02:50:05.776Z,9.73
2017-04-03T02:51:05.756Z,9.67
2017-04-03T02:52:05.753Z,9.61
2017-04-03T02:53:06.055Z,9.6
2017-04-03T02:54:06.109Z,9.6
2017-04-03T02:55:06.027Z,9.63
2017-04-03T02:56:06.005Z,9.64
2017-04-03T02:57:05.664Z,9.67
2017-04-03T02:58:05.963Z,9.63
2017-04-03T02:59:05.952Z,9.63
2017-04-03T03:00:05.927Z,9.61
2017-04-03T03:01:05.913Z,9.6
2017-04-03T03:02:05.894Z,9.58
2017-04-03T03:03:05.881Z,9.63
2017-04-03T03:04:05.864Z,9.71
2017-04-03T03:05:05.538Z,9.73
2017-04-03T03:06:05.836Z,9.66
2017-04-03T03:07:05.822Z,9.7
2017-04-03T03:08:05.806Z,9.67
2017-04-03T03:09:05.792Z,9.58
2017-04-03T03:10:05.151Z,9.58
2017-04-03T03:11:05.799Z,9.63
2017-04-03T03:12:05.759Z,9.57
2017-04-03T03:13:05.740Z,9.63
2017-04-03T03:14:05.740Z,9.56
2017-04-03T03:15:05.393Z,9.46
2017-04-03T03:16:05.375Z,9.46
2017-04-03T03:17:05.355Z,9.45
2017-04-03T03:18:05.656Z,9.39
2017-04-03T03:19:05.639Z,9.49
2017-04-03T03:20:05.625Z,9.46
2017-04-03T03:21:05.304Z,9.5
2017-04-03T03:22:05.283Z,9.58
2017-04-03T03:23:05.580Z,9.57
2017-04-03T03:24:05.250Z,9.53
2017-04-03T03:25:05.545Z,9.53
2017-04-03T03:26:05.533Z,9.57
2017-04-03T03:27:05.200Z,9.56
2017-04-03T03:28:05.505Z,9.57
2017-04-03T03:29:05.485Z,9.6
2017-04-03T03:30:05.471Z,9.56
2017-04-03T03:31:05.456Z,9.64
2017-04-03T03:32:05.438Z,9.66
2017-04-03T03:33:05.421Z,9.66
2017-04-03T03:34:05.140Z,9.66
2017-04-03T03:35:05.394Z,9.63
2017-04-03T03:36:05.378Z,9.71
2017-04-03T03:37:05.049Z,9.66
2017-04-03T03:38:05.544Z,9.53
2017-04-03T03:39:05.331Z,9.61
2017-04-03T03:40:05.322Z,9.6
2017-04-03T03:41:05.300Z,9.58
2017-04-03T03:42:05.281Z,9.56
2017-04-03T03:43:05.271Z,9.6
2017-04-03T03:44:05.257Z,9.57
2017-04-03T03:45:05.253Z,9.6
2017-04-03T03:46:05.219Z,9.63
2017-04-03T03:47:05.214Z,9.58
2017-04-03T03:48:05.201Z,9.6
2017-04-03T03:49:05.188Z,9.61
2017-04-03T03:50:05.163Z,9.6
2017-04-03T03:51:05.148Z,9.61
2017-04-03T03:52:04.817Z,9.7
2017-04-03T03:53:04.802Z,9.7
2017-04-03T03:54:05.107Z,9.76
2017-04-03T03:55:05.086Z,9.7
2017-04-03T03:56:05.073Z,9.71
2017-04-03T03:57:05.064Z,9.61
2017-04-03T03:58:05.041Z,9.73
2017-04-03T03:59:04.721Z,9.63
2017-04-03T04:00:05.008Z,9.7
2017-04-03T04:01:04.715Z,9.7
2017-04-03T04:02:04.979Z,9.71
2017-04-03T04:03:05.043Z,9.71
2017-04-03T04:04:04.633Z,9.7
2017-04-03T04:05:04.928Z,9.75
2017-04-03T04:06:04.917Z,9.78
2017-04-03T04:07:04.901Z,9.81
2017-04-03T04:08:04.888Z,9.73
2017-04-03T04:09:04.879Z,9.73
2017-04-03T04:10:04.857Z,9.81
2017-04-03T04:11:04.839Z,9.73
2017-04-03T04:12:04.859Z,9.75
2017-04-03T04:13:04.807Z,9.82
2017-04-03T04:14:04.796Z,9.83
2017-04-03T04:15:04.464Z,9.79
2017-04-03T04:16:04.761Z,9.81
2017-04-03T04:17:04.746Z,9.81
2017-04-03T04:18:04.734Z,9.85
2017-04-03T04:19:04.712Z,9.82
2017-04-03T04:20:04.699Z,9.73
2017-04-03T04:21:04.688Z,9.73
2017-04-03T04:22:04.670Z,9.71
2017-04-03T04:23:04.652Z,9.73
2017-04-03T04:24:04.635Z,9.71
2017-04-03T04:25:04.631Z,9.7
2017-04-03T04:26:04.607Z,9.75
2017-04-03T04:27:04.283Z,9.76
2017-04-03T04:28:04.269Z,9.73
2017-04-03T04:29:04.563Z,9.78
2017-04-03T04:30:04.546Z,9.75
2017-04-03T04:31:04.529Z,9.86
2017-04-03T04:32:04.514Z,9.75
2017-04-03T04:33:04.507Z,9.82
2017-04-03T04:34:04.170Z,9.82
2017-04-03T04:35:04.467Z,9.81
2017-04-03T04:36:04.141Z,9.78
2017-04-03T04:37:04.437Z,9.82
2017-04-03T04:38:04.419Z,9.81
2017-04-03T04:39:04.411Z,9.75
2017-04-03T04:40:03.768Z,9.79
2017-04-03T04:41:04.376Z,9.79
2017-04-03T04:42:04.363Z,9.78
2017-04-03T04:43:04.345Z,9.79
2017-04-03T04:44:04.338Z,9.83
2017-04-03T04:45:04.718Z,9.83
2017-04-03T04:46:04.311Z,9.82
2017-04-03T04:47:04.291Z,9.82
2017-04-03T04:48:03.959Z,9.76
2017-04-03T04:49:04.314Z,9.85
2017-04-03T04:50:04.244Z,9.83
2017-04-03T04:51:04.225Z,9.82
2017-04-03T04:52:03.897Z,9.79
2017-04-03T04:53:03.575Z,9.82
2017-04-03T04:54:04.183Z,9.85
2017-04-03T04:55:04.185Z,9.75
2017-04-03T04:56:04.152Z,9.75
2017-04-03T04:57:04.136Z,9.75
2017-04-03T04:58:04.114Z,9.82
2017-04-03T04:59:04.144Z,9.85
2017-04-03T05:00:04.083Z,9.79
2017-04-03T05:01:04.077Z,9.73
2017-04-03T05:02:04.054Z,9.71
2017-04-03T05:03:04.102Z,9.61
2017-04-03T05:04:03.722Z,9.73
2017-04-03T05:05:04.040Z,9.75
2017-04-03T05:06:03.994Z,9.73
2017-04-03T05:07:03.978Z,9.68
2017-04-03T05:08:03.656Z,9.73
2017-04-03T05:09:03.941Z,9.75
2017-04-03T05:10:03.926Z,9.73
2017-04-03T05:11:03.913Z,9.63
2017-04-03T05:12:03.893Z,9.71
2017-04-03T05:13:03.879Z,9.67
2017-04-03T05:14:03.557Z,9.66
2017-04-03T05:15:03.537Z,9.64
2017-04-03T05:16:03.835Z,9.63
2017-04-03T05:17:03.826Z,9.67
2017-04-03T05:18:03.805Z,9.58
2017-04-03T05:19:03.786Z,9.61
2017-04-03T05:20:03.778Z,9.58
2017-04-03T05:21:03.760Z,9.56
2017-04-03T05:22:03.743Z,9.52
2017-04-03T05:23:03.416Z,9.39
2017-04-03T05:24:03.716Z,9.35
2017-04-03T05:25:03.727Z,9.43
2017-04-03T05:26:03.691Z,9.48
2017-04-03T05:27:03.665Z,9.38
2017-04-03T05:28:03.343Z,9.43
2017-04-03T05:29:03.633Z,9.35
2017-04-03T05:30:03.654Z,9.4
2017-04-03T05:31:03.298Z,9.3
2017-04-03T05:32:03.601Z,9.25
2017-04-03T05:33:03.569Z,9.24
2017-04-03T05:34:03.572Z,9.18
2017-04-03T05:35:03.554Z,9.18
2017-04-03T05:36:03.545Z,9.16
2017-04-03T05:37:03.525Z,9.15
2017-04-03T05:38:03.510Z,9.21
2017-04-03T05:39:03.497Z,9.27
2017-04-03T05:40:03.491Z,9.31
2017-04-03T05:41:03.486Z,9.3
2017-04-03T05:42:03.425Z,9.31
2017-04-03T05:43:03.440Z,9.3
2017-04-03T05:44:03.395Z,9.25
2017-04-03T05:45:03.377Z,9.31
2017-04-03T05:46:03.367Z,9.32
2017-04-03T05:47:03.351Z,9.27
2017-04-03T05:48:03.335Z,9.27
2017-04-03T05:49:03.328Z,9.16
2017-04-03T05:50:03.301Z,9.24
2017-04-03T05:51:02.969Z,9.24
2017-04-03T05:52:03.309Z,9.23
2017-04-03T05:53:03.251Z,9.25
2017-04-03T05:54:03.233Z,9.31
2017-04-03T05:55:03.230Z,9.31
2017-04-03T05:56:03.222Z,9.28
2017-04-03T05:57:03.198Z,9.25
2017-04-03T05:58:03.196Z,9.27
2017-04-03T05:59:03.174Z,9.32
2017-04-03T06:00:03.147Z,9.28
2017-04-03T06:01:03.126Z,9.31
2017-04-03T06:02:03.111Z,9.27
2017-04-03T06:03:03.098Z,9.23
2017-04-03T06:04:03.082Z,9.27
2017-04-03T06:05:02.756Z,9.21
2017-04-03T06:06:03.053Z,9.25
2017-04-03T06:07:03.031Z,9.27
2017-04-03T06:08:03.018Z,9.34
2017-04-03T06:09:02.999Z,9.24
2017-04-03T06:10:02.672Z,9.23
2017-04-03T06:11:02.657Z,9.28
2017-04-03T06:12:02.955Z,9.21
2017-04-03T06:13:02.937Z,9.16
2017-04-03T06:14:02.619Z,9.15
2017-04-03T06:15:02.900Z,9.21
2017-04-03T06:16:02.890Z,9.25
2017-04-03T06:17:02.872Z,9.3
2017-04-03T06:18:02.860Z,9.24
2017-04-03T06:19:02.888Z,9.3
2017-04-03T06:20:02.517Z,9.3
2017-04-03T06:21:02.813Z,9.31
2017-04-03T06:22:02.801Z,9.32
2017-04-03T06:23:02.785Z,9.32
2017-04-03T06:24:02.665Z,9.42
2017-04-03T06:25:02.768Z,9.43
2017-04-03T06:26:02.732Z,9.35
2017-04-03T06:27:02.721Z,9.35
2017-04-03T06:28:02.082Z,9.42
2017-04-03T06:29:02.688Z,9.42
2017-04-03T06:30:02.683Z,9.3
2017-04-03T06:31:02.656Z,9.28
2017-04-03T06:32:02.645Z,9.32
2017-04-03T06:33:02.635Z,9.31
2017-04-03T06:34:02.606Z,9.25
2017-04-03T06:35:02.600Z,9.25
2017-04-03T06:36:02.277Z,9.25
2017-04-03T06:37:02.591Z,9.16
2017-04-03T06:38:02.239Z,9.15
2017-04-03T06:39:02.532Z,9.18
2017-04-03T06:40:02.514Z,9.23
2017-04-03T06:41:02.510Z,9.2
2017-04-03T06:42:02.176Z,9.32
2017-04-03T06:43:02.528Z,9.31
2017-04-03T06:44:02.661Z,9.34
2017-04-03T06:45:02.442Z,9.32
2017-04-03T06:46:02.117Z,9.32
2017-04-03T06:47:02.614Z,9.27
2017-04-03T06:48:02.392Z,9.4
2017-04-03T06:49:02.062Z,9.45
2017-04-03T06:50:02.373Z,9.38
2017-04-03T06:51:02.360Z,9.38
2017-04-03T06:52:02.334Z,9.43
2017-04-03T06:53:02.069Z,9.43
2017-04-03T06:54:02.364Z,9.42
2017-04-03T06:55:02.279Z,9.52
2017-04-03T06:56:02.274Z,9.52
2017-04-03T06:57:02.258Z,9.56
2017-04-03T06:58:02.246Z,9.57
2017-04-03T06:59:02.218Z,9.57
2017-04-03T07:00:02.208Z,9.56
2017-04-03T07:01:02.199Z,9.6
2017-04-03T07:02:02.180Z,9.52
2017-04-03T07:03:02.166Z,9.53
2017-04-03T07:04:02.347Z,9.56
2017-04-03T07:05:02.153Z,9.53
2017-04-03T07:06:02.115Z,9.61
2017-04-03T07:07:01.781Z,9.67
2017-04-03T07:08:02.084Z,9.63
2017-04-03T07:09:02.068Z,9.56
2017-04-03T07:10:02.062Z,9.6
2017-04-03T07:11:02.032Z,9.67
2017-04-03T07:12:02.018Z,9.67
2017-04-03T07:13:01.694Z,9.57
2017-04-03T07:14:01.994Z,9.63
2017-04-03T07:15:01.974Z,9.68
2017-04-03T07:16:01.964Z,9.57
2017-04-03T07:17:01.850Z,9.66
2017-04-03T07:18:01.928Z,9.57
2017-04-03T07:19:01.917Z,9.63
2017-04-03T07:20:01.894Z,9.63
2017-04-03T07:21:01.930Z,9.7
2017-04-03T07:22:01.867Z,9.67
2017-04-03T07:23:01.849Z,9.6
2017-04-03T07:24:02.037Z,9.64
2017-04-03T07:25:01.832Z,9.63
2017-04-03T07:26:01.489Z,9.67
2017-04-03T07:27:01.786Z,9.58
2017-04-03T07:28:01.774Z,9.61
2017-04-03T07:29:01.806Z,9.61
2017-04-03T07:30:01.744Z,9.58
2017-04-03T07:31:01.732Z,9.66
2017-04-03T07:32:01.722Z,9.7
2017-04-03T07:33:01.704Z,9.71
2017-04-03T07:34:01.744Z,9.81
2017-04-03T07:35:01.664Z,9.71
2017-04-03T07:36:01.383Z,9.82
2017-04-03T07:37:01.323Z,9.86
2017-04-03T07:38:01.621Z,9.93
2017-04-03T07:39:01.608Z,9.94
2017-04-03T07:40:01.588Z,9.85
2017-04-03T07:41:01.571Z,9.88
2017-04-03T07:42:01.555Z,9.97
2017-04-03T07:43:01.543Z,9.97
2017-04-03T07:44:01.564Z,9.93
2017-04-03T07:45:01.552Z,9.94
2017-04-03T07:46:01.537Z,9.93
2017-04-03T07:47:01.188Z,9.94
2017-04-03T07:48:01.471Z,9.97
2017-04-03T07:49:01.453Z,9.89
2017-04-03T07:50:01.436Z,9.94
2017-04-03T07:51:01.427Z,9.85
2017-04-03T07:52:01.409Z,10
2017-04-03T07:53:01.603Z,9.97
2017-04-03T07:54:01.373Z,9.97
2017-04-03T07:55:01.418Z,10.01
2017-04-03T07:56:01.377Z,9.93
2017-04-03T07:57:01.383Z,10.03
2017-04-03T07:58:01.336Z,10.04
2017-04-03T07:59:01.510Z,9.93
2017-04-03T08:00:15.869Z,10.01
2017-04-03T08:01:01.271Z,9.93
2017-04-03T08:02:01.255Z,9.96
2017-04-03T08:03:01.244Z,9.96
2017-04-03T08:04:01.226Z,9.97
2017-04-03T08:05:01.213Z,9.96
2017-04-03T08:06:00.883Z,9.94
2017-04-03T08:07:01.196Z,9.99
2017-04-03T08:08:01.413Z,9.91
2017-04-03T08:09:01.208Z,9.93
2017-04-03T08:10:01.142Z,9.99
2017-04-03T08:11:01.119Z,10.01
2017-04-03T08:12:01.157Z,10.04
2017-04-03T08:13:01.089Z,10.06
2017-04-03T08:14:01.080Z,10.1
2017-04-03T08:15:01.059Z,10.03
2017-04-03T08:16:01.063Z,10.06
2017-04-03T08:17:01.083Z,10.09
2017-04-03T08:18:01.045Z,10.03
2017-04-03T08:19:01.003Z,10.09
2017-04-03T08:20:00.673Z,10.17
2017-04-03T08:21:00.971Z,10.19
2017-04-03T08:22:01.044Z,10.3
2017-04-03T08:23:00.983Z,10.25
2017-04-03T08:24:00.929Z,10.26
2017-04-03T08:25:00.640Z,10.3
2017-04-03T08:26:00.900Z,10.26
2017-04-03T08:27:00.887Z,10.25
2017-04-03T08:28:00.869Z,10.34
2017-04-03T08:29:01.245Z,10.28
2017-04-03T08:30:00.852Z,10.34
2017-04-03T08:31:00.830Z,10.32
2017-04-03T08:32:00.806Z,10.34
2017-04-03T08:33:00.484Z,10.39
2017-04-03T08:34:00.469Z,10.37
2017-04-03T08:35:00.451Z,10.33
2017-04-03T08:36:00.749Z,10.33
2017-04-03T08:37:00.743Z,10.3
2017-04-03T08:38:00.718Z,10.36
2017-04-03T08:39:00.712Z,10.36
2017-04-03T08:40:00.693Z,10.33
2017-04-03T08:41:00.676Z,10.36
2017-04-03T08:42:00.661Z,10.43
2017-04-03T08:43:00.649Z,10.42
2017-04-03T08:44:00.633Z,10.55
2017-04-03T08:45:00.619Z,10.4
2017-04-03T08:46:00.810Z,10.36
2017-04-03T08:47:00.275Z,10.42
2017-04-03T08:48:00.581Z,10.33
2017-04-03T08:49:00.570Z,10.43
2017-04-03T08:50:00.240Z,10.4
2017-04-03T08:51:00.532Z,10.43
2017-04-03T08:52:00.217Z,10.52
2017-04-03T08:53:00.188Z,10.46
2017-04-03T08:54:00.178Z,10.52
2017-04-03T08:55:00.474Z,10.55
2017-04-03T08:56:00.457Z,10.52
2017-04-03T08:57:00.443Z,10.55
2017-04-03T08:58:00.427Z,10.51
2017-04-03T08:59:00.419Z,10.53
2017-04-03T09:00:00.436Z,10.55
2017-04-03T09:01:00.386Z,10.51
2017-04-03T09:02:00.057Z,10.74
2017-04-03T09:03:00.356Z,10.65
2017-04-03T09:04:00.341Z,10.56
2017-04-03T09:05:00.337Z,10.58
2017-04-03T09:06:00.316Z,10.6
2017-04-03T09:07:00.303Z,10.65
2017-04-03T09:08:00.386Z,10.71
2017-04-03T09:09:00.269Z,10.6
2017-04-03T09:10:00.253Z,10.68
2017-04-03T09:11:00.241Z,10.65
2017-04-03T09:12:00.233Z,10.59
2017-04-03T09:13:00.213Z,10.7
2017-04-03T09:14:00.204Z,10.71
2017-04-03T09:15:00.181Z,10.73
2017-04-03T09:16:00.173Z,10.83
2017-04-03T09:16:59.849Z,10.83
2017-04-03T09:18:00.148Z,10.88
2017-04-03T09:18:59.813Z,10.78
2017-04-03T09:20:00.110Z,10.91
2017-04-03T09:21:00.104Z,10.78
2017-04-03T09:22:00.087Z,10.86
2017-04-03T09:23:00.067Z,10.8
2017-04-03T09:24:00.102Z,10.98
2017-04-03T09:25:00.037Z,10.88
2017-04-03T09:26:00.033Z,10.88
2017-04-03T09:27:00.020Z,11.01
2017-04-03T09:28:00.005Z,10.84
2017-04-03T09:29:00.030Z,10.94
2017-04-03T09:29:59.974Z,11.03
2017-04-03T09:30:59.996Z,11.01
2017-04-03T09:31:59.953Z,11.01
2017-04-03T09:32:59.628Z,11.14
2017-04-03T09:33:59.624Z,11.07
2017-04-03T09:34:59.906Z,11.14
2017-04-03T09:35:59.888Z,11.27
2017-04-03T09:36:59.878Z,11.14
2017-04-03T09:37:59.857Z,11.11
2017-04-03T09:38:59.537Z,11.11
2017-04-03T09:39:59.834Z,11.14
2017-04-03T09:40:59.824Z,11.1
2017-04-03T09:41:59.525Z,11.24
2017-04-03T09:42:59.822Z,11.29
2017-04-03T09:43:59.816Z,11.28
2017-04-03T09:44:59.794Z,11.29
2017-04-03T09:45:59.756Z,11.25
2017-04-03T09:46:59.738Z,11.32
2017-04-03T09:47:59.735Z,11.27
2017-04-03T09:48:59.710Z,11.34
2017-04-03T09:49:59.702Z,11.31
2017-04-03T09:50:59.690Z,11.2
2017-04-03T09:51:59.376Z,11.2
2017-04-03T09:52:59.799Z,11.31
2017-04-03T09:53:59.699Z,11.29
2017-04-03T09:54:59.327Z,11.28
2017-04-03T09:55:59.626Z,11.28
2017-04-03T09:56:59.610Z,11.31
2017-04-03T09:57:59.593Z,11.39
2017-04-03T09:58:59.575Z,11.46
2017-04-03T09:59:59.565Z,11.46
2017-04-03T10:00:59.552Z,11.38
2017-04-03T10:01:59.552Z,11.38
2017-04-03T10:02:59.524Z,11.35
2017-04-03T10:03:58.900Z,11.52
2017-04-03T10:04:59.502Z,11.49
2017-04-03T10:05:58.879Z,11.47
2017-04-03T10:06:59.182Z,11.53
2017-04-03T10:07:59.150Z,11.64
2017-04-03T10:08:59.457Z,11.61
2017-04-03T10:09:59.464Z,11.67
2017-04-03T10:10:59.442Z,11.64
2017-04-03T10:11:59.421Z,11.62
2017-04-03T10:12:59.422Z,11.62
2017-04-03T10:13:59.394Z,11.7
2017-04-03T10:14:59.387Z,11.64
2017-04-03T10:15:59.363Z,11.7
2017-04-03T10:16:59.343Z,11.87
2017-04-03T10:17:59.327Z,11.78
2017-04-03T10:18:59.336Z,11.85
2017-04-03T10:19:59.317Z,11.67
2017-04-03T10:20:59.314Z,11.41
2017-04-03T10:21:59.280Z,11.31
2017-04-03T10:22:58.955Z,11.43
2017-04-03T10:23:58.978Z,11.36
2017-04-03T10:24:59.249Z,11.46
2017-04-03T10:25:59.231Z,11.52
2017-04-03T10:26:59.212Z,11.62
2017-04-03T10:27:59.202Z,11.72
2017-04-03T10:28:58.876Z,11.77
2017-04-03T10:29:59.189Z,11.86
2017-04-03T10:30:58.857Z,11.93
2017-04-03T10:31:59.156Z,12.09
2017-04-03T10:32:58.826Z,12.06
2017-04-03T10:33:59.132Z,12.08
2017-04-03T10:34:59.121Z,12.08
2017-04-03T10:35:58.789Z,12.11
2017-04-03T10:36:58.785Z,12.21
2017-04-03T10:37:58.454Z,12.15
2017-04-03T10:38:58.756Z,12.2
2017-04-03T10:39:58.744Z,12.29
2017-04-03T10:40:58.729Z,12.37
2017-04-03T10:41:59.078Z,12.31
2017-04-03T10:42:58.726Z,12.31
2017-04-03T10:43:58.697Z,12.34
2017-04-03T10:44:58.997Z,12.23
2017-04-03T10:45:59.191Z,12.24
2017-04-03T10:46:58.976Z,12.08
2017-04-03T10:47:58.644Z,11.99
2017-04-03T10:48:58.942Z,11.94
2017-04-03T10:49:58.935Z,12.01
2017-04-03T10:50:58.919Z,12.12
2017-04-03T10:51:58.904Z,12.2
2017-04-03T10:52:58.897Z,12.24
2017-04-03T10:53:58.572Z,12.37
2017-04-03T10:54:58.875Z,12.33
2017-04-03T10:55:58.571Z,12.31
2017-04-03T10:56:58.865Z,12.44
2017-04-03T10:57:58.865Z,12.48
2017-04-03T10:58:58.822Z,12.51
2017-04-03T10:59:58.875Z,12.44
2017-04-03T11:00:58.503Z,12.45
2017-04-03T11:01:59.012Z,12.49
2017-04-03T11:02:58.480Z,12.49
2017-04-03T11:03:58.770Z,12.54
2017-04-03T11:04:58.756Z,12.48
2017-04-03T11:05:58.429Z,12.49
2017-04-03T11:06:58.767Z,12.51
2017-04-03T11:07:58.752Z,12.49
2017-04-03T11:08:58.712Z,12.51
2017-04-03T11:09:58.705Z,12.54
2017-04-03T11:10:58.380Z,12.66
2017-04-03T11:11:58.469Z,12.75
2017-04-03T11:12:58.687Z,12.92
2017-04-03T11:13:58.650Z,12.97
2017-04-03T11:14:58.328Z,13.07
2017-04-03T11:15:58.637Z,13.14
2017-04-03T11:16:58.632Z,13.17
2017-04-03T11:17:58.619Z,13.29
2017-04-03T11:18:58.496Z,13.25
2017-04-03T11:19:58.633Z,13.2
2017-04-03T11:20:58.578Z,13.22
2017-04-03T11:21:58.563Z,13.32
2017-04-03T11:22:58.250Z,13.51
2017-04-03T11:23:58.537Z,13.52
2017-04-03T11:24:58.529Z,13.41
2017-04-03T11:25:58.541Z,13.02
2017-04-03T11:26:58.507Z,12.99
2017-04-03T11:27:58.530Z,13.11
2017-04-03T11:28:58.498Z,13.21
2017-04-03T11:29:58.474Z,13.29
2017-04-03T11:30:58.467Z,13.41
2017-04-03T11:31:58.453Z,13.56
2017-04-03T11:32:58.151Z,13.83
2017-04-03T11:33:58.434Z,13.83
2017-04-03T11:34:58.423Z,13.89
2017-04-03T11:35:58.412Z,13.92
2017-04-03T11:36:58.094Z,14.12
2017-04-03T11:37:58.084Z,14.12
2017-04-03T11:38:58.391Z,14.16
2017-04-03T11:39:58.371Z,14.07
2017-04-03T11:40:58.365Z,14.19
2017-04-03T11:41:58.351Z,14.31
2017-04-03T11:42:58.343Z,14.35
2017-04-03T11:43:58.346Z,14.34
2017-04-03T11:44:58.323Z,14.47
2017-04-03T11:45:58.319Z,14.57
2017-04-03T11:46:58.347Z,14.68
2017-04-03T11:47:58.304Z,14.75
2017-04-03T11:48:57.985Z,14.88
2017-04-03T11:49:58.285Z,14.94
2017-04-03T11:50:57.962Z,15.15
2017-04-03T11:51:58.266Z,14.8
2017-04-03T11:52:57.953Z,14.87
2017-04-03T11:53:57.937Z,14.95
2017-04-03T11:54:58.250Z,15.26
2017-04-03T11:55:58.266Z,15.39
2017-04-03T11:56:58.220Z,15.33
2017-04-03T11:57:58.274Z,15.03
2017-04-03T11:58:58.205Z,15.19
2017-04-03T11:59:58.258Z,15.82
2017-04-03T12:00:58.204Z,16.35
2017-04-03T12:01:58.188Z,16.95
2017-04-03T12:02:57.557Z,17.55
2017-04-03T12:03:58.180Z,17.79
2017-04-03T12:04:57.884Z,18.17
2017-04-03T12:05:57.855Z,18.43
2017-04-03T12:06:58.177Z,18.83
2017-04-03T12:07:58.159Z,18.76
2017-04-03T12:08:57.850Z,19.11
2017-04-03T12:09:58.159Z,19.36
2017-04-03T12:10:58.161Z,19.72
2017-04-03T12:11:58.149Z,19.76
2017-04-03T12:12:58.144Z,19.84
2017-04-03T12:13:58.141Z,20.09
2017-04-03T12:14:58.143Z,20.25
2017-04-03T12:15:58.143Z,20.42
2017-04-03T12:16:58.136Z,20.59
2017-04-03T12:17:57.823Z,19.63
2017-04-03T12:18:58.139Z,19.01
2017-04-03T12:19:58.136Z,19.36
2017-04-03T12:20:58.129Z,19.75
2017-04-03T12:21:58.138Z,20.1
2017-04-03T12:22:58.133Z,20.05
2017-04-03T12:23:58.133Z,19.61
2017-04-03T12:24:58.138Z,19.8
2017-04-03T12:25:58.201Z,20.24
2017-04-03T12:26:58.138Z,19.98
2017-04-03T12:27:58.133Z,19.36
2017-04-03T12:28:58.128Z,19.8
2017-04-03T12:29:58.132Z,20.35
2017-04-03T12:30:58.131Z,20.9
2017-04-03T12:31:58.186Z,21.29
2017-04-03T12:32:58.135Z,21.72
2017-04-03T12:33:58.157Z,22.06
2017-04-03T12:34:57.849Z,22.09
2017-04-03T12:35:58.143Z,21.97
2017-04-03T12:36:58.166Z,22.07
2017-04-03T12:37:58.141Z,22.29
2017-04-03T12:38:58.138Z,22.64
2017-04-03T12:39:58.137Z,22.64
2017-04-03T12:40:58.144Z,22.59
2017-04-03T12:41:58.233Z,22.82
2017-04-03T12:42:57.835Z,23.01
2017-04-03T12:43:58.202Z,23.4
2017-04-03T12:44:58.155Z,23.7
2017-04-03T12:45:58.407Z,23.8
2017-04-03T12:46:57.843Z,23.43
2017-04-03T12:47:58.160Z,23.27
2017-04-03T12:48:57.866Z,23.05
2017-04-03T12:49:58.161Z,23.15
2017-04-03T12:50:57.905Z,23.46
2017-04-03T12:51:57.852Z,23.65
2017-04-03T12:52:57.871Z,23.7
2017-04-03T12:53:58.168Z,23.82
2017-04-03T12:54:58.261Z,23.82
2017-04-03T12:55:58.170Z,23.82
2017-04-03T12:56:58.179Z,23.98
2017-04-03T12:57:57.863Z,24.08
2017-04-03T12:58:58.177Z,24.19
2017-04-03T12:59:58.179Z,23.97
2017-04-03T13:00:58.193Z,23.72
2017-04-03T13:01:58.183Z,23.89
2017-04-03T13:02:58.386Z,23.83
2017-04-03T13:03:58.187Z,24
2017-04-03T13:04:58.189Z,23.9
2017-04-03T13:05:58.196Z,23.8
2017-04-03T13:06:58.193Z,23.19